createdAt,value
2018-01-08T00:00:18.610Z,17.33
2018-01-08T00:01:21.088Z,16.12
2018-01-08T00:02:23.683Z,20.88
2018-01-08T00:03:26.200Z,20.42
2018-01-08T00:04:29.386Z,14.18
2018-01-08T00:05:31.845Z,16.73
2018-01-08T00:06:34.328Z,17.20
2018-01-08T00:07:37.597Z,20.23
2018-01-08T00:08:40.152Z,14.43
2018-01-08T00:09:42.658Z,19.40
2018-01-08T00:10:45.140Z,16.42
2018-01-08T00:11:48.446Z,16.95
2018-01-08T00:12:50.902Z,16.90
2018-01-08T00:13:54.158Z,17.55
2018-01-08T00:14:57.445Z,18.58
2018-01-08T00:15:59.940Z,16.35
2018-01-08T00:17:02.459Z,17.75
2018-01-08T00:18:04.940Z,17.87
2018-01-08T00:19:07.430Z,16.33
2018-01-08T00:20:09.896Z,17.65
2018-01-08T00:21:12.446Z,19.90
2018-01-08T00:22:15.682Z,15.43
2018-01-08T00:23:18.976Z,18.62
2018-01-08T00:24:21.554Z,21.62
2018-01-08T00:25:24.096Z,23.85
2018-01-08T00:26:26.611Z,19.85
2018-01-08T00:27:29.852Z,20.45
2018-01-08T00:28:33.109Z,19.00
2018-01-08T00:29:36.363Z,18.55
2018-01-08T00:30:38.864Z,23.80
2018-01-08T00:31:42.126Z,18.55
2018-01-08T00:32:44.606Z,20.33
2018-01-08T00:33:47.139Z,16.55
2018-01-08T00:34:50.413Z,17.05
2018-01-08T00:35:53.783Z,17.35
2018-01-08T00:36:56.274Z,18.08
2018-01-08T00:37:59.545Z,21.37
2018-01-08T00:39:02.106Z,17.92
2018-01-08T00:40:04.640Z,16.45
2018-01-08T00:41:07.107Z,21.10
2018-01-08T00:42:09.608Z,22.30
2018-01-08T00:43:12.121Z,16.27
2018-01-08T00:44:16.126Z,20.25
2018-01-08T00:45:18.647Z,19.02
2018-01-08T00:46:21.102Z,19.40
2018-01-08T00:47:23.611Z,17.12
2018-01-08T00:48:26.069Z,18.42
2018-01-08T00:49:28.758Z,19.35
2018-01-08T00:50:31.257Z,17.77
2018-01-08T00:51:34.524Z,18.20
2018-01-08T00:52:37.015Z,24.12
2018-01-08T00:53:40.998Z,16.60
2018-01-08T00:54:43.548Z,16.05
2018-01-08T00:55:46.065Z,18.30
2018-01-08T00:56:48.588Z,18.83
2018-01-08T00:57:51.085Z,19.55
2018-01-08T00:58:54.343Z,19.50
2018-01-08T00:59:56.805Z,21.02
2018-01-08T01:00:59.309Z,18.85
2018-01-08T01:02:01.765Z,17.02
2018-01-08T01:03:04.255Z,24.90
2018-01-08T01:04:06.762Z,18.65
2018-01-08T01:05:09.975Z,21.02
2018-01-08T01:06:13.216Z,18.00
2018-01-08T01:07:15.709Z,18.02
2018-01-08T01:08:18.181Z,13.75
2018-01-08T01:09:21.418Z,16.73
2018-01-08T01:10:23.914Z,16.40
2018-01-08T01:11:26.400Z,21.80
2018-01-08T01:12:28.902Z,19.08
2018-01-08T01:13:32.150Z,19.83
2018-01-08T01:14:35.404Z,19.50
2018-01-08T01:15:37.934Z,20.60
2018-01-08T01:16:41.160Z,16.20
2018-01-08T01:17:44.423Z,18.30
2018-01-08T01:18:46.923Z,14.02
2018-01-08T01:19:50.342Z,18.17
2018-01-08T01:20:52.864Z,16.87
2018-01-08T01:21:55.455Z,18.62
2018-01-08T01:22:57.982Z,17.08
2018-01-08T01:24:00.495Z,16.83
2018-01-08T01:25:03.018Z,21.45
2018-01-08T01:26:06.238Z,24.83
2018-01-08T01:27:08.788Z,16.08
2018-01-08T01:28:11.262Z,19.65
2018-01-08T01:29:13.738Z,20.30
2018-01-08T01:30:16.202Z,19.05
2018-01-08T01:31:19.307Z,18.42
2018-01-08T01:32:21.833Z,18.48
2018-01-08T01:33:24.357Z,15.15
2018-01-08T01:34:26.841Z,18.52
2018-01-08T01:35:30.124Z,19.65
2018-01-08T01:36:32.610Z,18.23
2018-01-08T01:37:35.895Z,19.10
2018-01-08T01:38:38.358Z,19.65
2018-01-08T01:39:40.872Z,22.08
2018-01-08T01:40:43.365Z,16.15
2018-01-08T01:41:45.853Z,19.20
2018-01-08T01:42:48.316Z,19.90
2018-01-08T01:43:50.846Z,19.98
2018-01-08T01:44:53.306Z,20.83
2018-01-08T01:45:55.805Z,16.12
2018-01-08T01:46:58.269Z,19.30
2018-01-08T01:48:00.739Z,18.87
2018-01-08T01:49:14.780Z,15.82
2018-01-08T01:51:26.920Z,17.40
2018-01-08T01:52:30.153Z,16.42
2018-01-08T01:53:32.626Z,17.90
2018-01-08T01:54:35.217Z,23.42
2018-01-08T01:55:38.469Z,17.95
2018-01-08T01:56:41.737Z,22.52
2018-01-08T01:57:44.209Z,19.60
2018-01-08T01:58:46.729Z,18.50
2018-01-08T01:59:49.217Z,17.55
2018-01-08T02:00:51.766Z,20.02
2018-01-08T02:01:54.242Z,23.10
2018-01-08T02:02:57.479Z,18.30
2018-01-08T02:04:00.771Z,17.48
2018-01-08T02:05:03.221Z,18.00
2018-01-08T02:06:05.699Z,17.52
2018-01-08T02:07:08.154Z,20.80
2018-01-08T02:08:10.756Z,26.08
2018-01-08T02:09:13.262Z,20.33
2018-01-08T02:10:15.792Z,18.80
2018-01-08T02:11:18.306Z,24.00
2018-01-08T02:12:20.777Z,19.67
2018-01-08T02:13:23.251Z,19.08
2018-01-08T02:14:26.504Z,25.25
2018-01-08T02:15:29.037Z,21.70
2018-01-08T02:16:31.537Z,17.73
2018-01-08T02:17:34.806Z,24.92
2018-01-08T02:18:37.292Z,26.08
2018-01-08T02:19:39.788Z,19.35
2018-01-08T02:20:42.314Z,24.27
2018-01-08T02:21:44.789Z,25.25
2018-01-08T02:22:48.062Z,20.85
2018-01-08T02:23:50.536Z,24.08
2018-01-08T02:24:53.774Z,23.52
2018-01-08T02:25:57.779Z,21.05
2018-01-08T02:27:00.259Z,24.17
2018-01-08T02:28:04.235Z,29.83
2018-01-08T02:29:07.545Z,22.27
2018-01-08T02:30:10.022Z,22.02
2018-01-08T02:31:13.286Z,20.33
2018-01-08T02:32:15.774Z,20.88
2018-01-08T02:33:19.017Z,19.95
2018-01-08T02:34:22.276Z,20.95
2018-01-08T02:35:24.733Z,25.77
2018-01-08T02:36:27.231Z,22.90
2018-01-08T02:37:29.714Z,21.83
2018-01-08T02:38:32.953Z,22.73
2018-01-08T02:39:36.999Z,22.58
2018-01-08T02:40:39.469Z,21.55
2018-01-08T02:41:42.705Z,19.23
2018-01-08T02:42:45.977Z,22.23
2018-01-08T02:43:48.442Z,25.65
2018-01-08T02:44:52.418Z,23.42
2018-01-08T02:45:55.687Z,21.23
2018-01-08T02:46:58.191Z,23.10
2018-01-08T02:48:01.454Z,19.85
2018-01-08T02:49:04.708Z,24.30
2018-01-08T02:50:07.183Z,23.12
2018-01-08T02:51:11.373Z,21.52
2018-01-08T02:52:14.640Z,22.58
2018-01-08T02:53:17.116Z,23.65
2018-01-08T02:54:20.351Z,20.40
2018-01-08T02:55:22.819Z,20.15
2018-01-08T02:56:25.293Z,24.37
2018-01-08T02:57:27.790Z,25.77
2018-01-08T02:58:30.279Z,30.92
2018-01-08T02:59:33.505Z,31.65
2018-01-08T03:00:35.991Z,23.90
2018-01-08T03:01:38.464Z,19.90
2018-01-08T03:02:41.737Z,21.50
2018-01-08T03:03:44.236Z,25.58
2018-01-08T03:04:47.524Z,19.50
2018-01-08T03:05:49.973Z,22.17
2018-01-08T03:06:52.449Z,25.62
2018-01-08T03:07:54.939Z,24.92
2018-01-08T03:08:58.170Z,28.40
2018-01-08T03:10:00.649Z,22.70
2018-01-08T03:11:03.124Z,22.48
2018-01-08T03:12:05.587Z,25.02
2018-01-08T03:13:08.077Z,29.63
2018-01-08T03:14:10.538Z,21.77
2018-01-08T03:15:13.032Z,26.20
2018-01-08T03:16:16.289Z,21.70
2018-01-08T03:17:19.534Z,27.50
2018-01-08T03:18:22.863Z,21.02
2018-01-08T03:19:25.429Z,32.53
2018-01-08T03:20:27.942Z,23.87
2018-01-08T03:21:30.422Z,24.98
2018-01-08T03:22:32.910Z,26.85
2018-01-08T03:23:35.406Z,19.42
2018-01-08T03:24:38.749Z,23.75
2018-01-08T03:25:42.020Z,19.60
2018-01-08T03:26:44.503Z,23.80
2018-01-08T03:27:47.766Z,29.02
2018-01-08T03:28:51.799Z,26.45
2018-01-08T03:29:55.086Z,21.70
2018-01-08T03:30:59.117Z,28.95
2018-01-08T03:32:02.352Z,23.48
2018-01-08T03:33:04.830Z,26.37
2018-01-08T03:34:07.301Z,27.55
2018-01-08T03:35:09.862Z,21.17
2018-01-08T03:36:12.338Z,20.92
2018-01-08T03:37:14.804Z,22.95
2018-01-08T03:38:17.269Z,25.50
2018-01-08T03:39:19.768Z,20.50
2018-01-08T03:40:22.289Z,23.80
2018-01-08T03:41:24.828Z,25.20
2018-01-08T03:42:27.288Z,25.30
2018-01-08T03:43:29.784Z,24.52
2018-01-08T03:44:32.293Z,27.37
2018-01-08T03:45:34.781Z,21.92
2018-01-08T03:46:37.279Z,24.23
2018-01-08T03:47:39.736Z,23.00
2018-01-08T03:48:42.965Z,22.95
2018-01-08T03:49:45.446Z,26.75
2018-01-08T03:50:47.918Z,20.75
2018-01-08T03:51:50.498Z,21.05
2018-01-08T03:52:52.972Z,26.33
2018-01-08T03:53:56.251Z,30.73
2018-01-08T03:54:58.709Z,22.55
2018-01-08T03:56:01.179Z,20.42
2018-01-08T03:57:04.456Z,24.63
2018-01-08T03:58:06.939Z,24.33
2018-01-08T03:59:09.430Z,23.98
2018-01-08T04:00:11.895Z,24.60
2018-01-08T04:01:14.358Z,23.52
2018-01-08T04:02:16.856Z,24.08
2018-01-08T04:03:20.592Z,24.95
2018-01-08T04:04:23.856Z,28.70
2018-01-08T04:05:26.343Z,25.50
2018-01-08T04:06:28.821Z,22.60
2018-01-08T04:07:31.321Z,25.08
2018-01-08T04:08:34.553Z,19.35
2018-01-08T04:09:37.123Z,30.17
2018-01-08T04:10:40.357Z,20.92
2018-01-08T04:11:42.852Z,20.60
2018-01-08T04:12:46.110Z,22.15
2018-01-08T04:13:48.596Z,20.60
2018-01-08T04:14:52.576Z,24.77
2018-01-08T04:15:55.835Z,25.02
2018-01-08T04:16:59.105Z,25.20
2018-01-08T04:18:01.569Z,23.87
2018-01-08T04:19:04.033Z,25.33
2018-01-08T04:20:06.526Z,25.52
2018-01-08T04:21:09.018Z,21.70
2018-01-08T04:22:11.525Z,31.12
2018-01-08T04:23:14.042Z,32.58
2018-01-08T04:24:16.533Z,23.40
2018-01-08T04:25:19.009Z,26.55
2018-01-08T04:26:21.537Z,21.33
2018-01-08T04:27:24.048Z,23.95
2018-01-08T04:28:26.558Z,28.33
2018-01-08T04:29:29.033Z,22.15
2018-01-08T04:30:31.499Z,23.25
2018-01-08T04:31:34.803Z,23.27
2018-01-08T04:32:37.271Z,22.65
2018-01-08T04:33:39.803Z,24.23
2018-01-08T04:34:42.376Z,21.85
2018-01-08T04:35:44.855Z,23.75
2018-01-08T04:36:47.309Z,25.98
2018-01-08T04:37:49.796Z,24.58
2018-01-08T04:38:53.164Z,23.33
2018-01-08T04:39:55.660Z,26.05
2018-01-08T04:40:58.920Z,21.98
2018-01-08T04:42:01.402Z,23.83
2018-01-08T04:43:03.872Z,22.98
2018-01-08T04:44:06.352Z,20.27
2018-01-08T04:45:08.833Z,22.33
2018-01-08T04:46:11.853Z,37.88
2018-01-08T04:47:14.315Z,30.92
2018-01-08T04:48:16.790Z,22.27
2018-01-08T04:49:20.521Z,23.75
2018-01-08T04:50:23.782Z,23.87
2018-01-08T04:51:26.262Z,24.45
2018-01-08T04:52:28.770Z,29.95
2018-01-08T04:53:31.228Z,25.70
2018-01-08T04:54:33.714Z,34.35
2018-01-08T04:55:36.207Z,25.05
2018-01-08T04:56:39.446Z,23.45
2018-01-08T04:57:42.704Z,24.37
2018-01-08T04:58:45.955Z,25.90
2018-01-08T04:59:48.421Z,27.02
2018-01-08T05:00:50.995Z,26.80
2018-01-08T05:01:54.233Z,26.10
2018-01-08T05:02:57.487Z,27.02
2018-01-08T05:04:00.711Z,28.20
2018-01-08T05:05:04.644Z,22.77
2018-01-08T05:06:08.013Z,24.33
2018-01-08T05:07:10.508Z,28.08
2018-01-08T05:08:13.106Z,25.92
2018-01-08T05:09:15.583Z,24.30
2018-01-08T05:10:18.142Z,24.85
2018-01-08T05:11:20.625Z,20.95
2018-01-08T05:12:23.199Z,26.87
2018-01-08T05:13:25.736Z,27.20
2018-01-08T05:14:28.258Z,21.75
2018-01-08T05:15:30.728Z,23.90
2018-01-08T05:16:33.208Z,30.30
2018-01-08T05:17:35.698Z,29.17
2018-01-08T05:18:38.976Z,30.05
2018-01-08T05:19:41.590Z,26.30
2018-01-08T05:20:44.121Z,23.73
2018-01-08T05:21:46.610Z,25.77
2018-01-08T05:22:50.628Z,26.20
2018-01-08T05:23:53.191Z,25.62
2018-01-08T05:24:55.680Z,35.03
2018-01-08T05:25:58.227Z,24.02
2018-01-08T05:27:00.687Z,30.15
2018-01-08T05:28:03.935Z,27.02
2018-01-08T05:29:07.305Z,25.83
2018-01-08T05:30:09.773Z,24.75
2018-01-08T05:31:13.011Z,26.87
2018-01-08T05:32:15.484Z,28.85
2018-01-08T05:33:17.955Z,28.02
2018-01-08T05:34:20.476Z,26.55
2018-01-08T05:35:23.196Z,30.48
2018-01-08T05:36:25.683Z,30.20
2018-01-08T05:37:28.205Z,29.17
2018-01-08T05:38:32.411Z,25.90
2018-01-08T05:39:34.919Z,30.58
2018-01-08T05:40:37.422Z,26.40
2018-01-08T05:41:40.665Z,28.98
2018-01-08T05:42:43.902Z,25.33
2018-01-08T05:43:47.137Z,24.08
2018-01-08T05:44:51.114Z,28.65
2018-01-08T05:45:53.570Z,25.42
2018-01-08T05:46:56.058Z,24.08
2018-01-08T05:47:59.299Z,26.40
2018-01-08T05:49:01.773Z,28.52
2018-01-08T05:50:04.277Z,24.90
2018-01-08T05:51:06.737Z,21.90
2018-01-08T05:52:09.253Z,24.98
2018-01-08T05:53:11.760Z,24.77
2018-01-08T05:54:14.256Z,28.85
2018-01-08T05:55:16.749Z,28.60
2018-01-08T05:56:20.041Z,28.20
2018-01-08T05:57:22.500Z,28.02
2018-01-08T05:58:24.970Z,26.62
2018-01-08T05:59:28.226Z,27.65
2018-01-08T06:00:30.708Z,25.00
2018-01-08T06:01:33.957Z,22.87
2018-01-08T06:02:37.196Z,25.90
2018-01-08T06:03:40.457Z,24.58
2018-01-08T06:04:43.793Z,26.50
2018-01-08T06:05:47.038Z,29.15
2018-01-08T06:06:50.257Z,26.05
2018-01-08T06:07:53.491Z,30.12
2018-01-08T06:08:55.974Z,29.60
2018-01-08T06:09:58.473Z,25.95
2018-01-08T06:11:01.702Z,27.45
2018-01-08T06:12:04.940Z,23.60
2018-01-08T06:13:09.028Z,21.85
2018-01-08T06:14:12.244Z,25.33
2018-01-08T06:15:15.520Z,28.90
2018-01-08T06:16:18.015Z,24.83
2018-01-08T06:17:20.480Z,32.47
2018-01-08T06:18:22.945Z,29.15
2018-01-08T06:19:25.444Z,20.85
2018-01-08T06:20:27.922Z,26.73
2018-01-08T06:21:30.458Z,30.88
2018-01-08T06:22:33.695Z,27.05
2018-01-08T06:23:36.949Z,29.10
2018-01-08T06:24:40.205Z,25.85
2018-01-08T06:25:42.726Z,26.33
2018-01-08T06:26:45.186Z,24.05
2018-01-08T06:27:47.684Z,28.73
2018-01-08T06:28:50.150Z,39.00
2018-01-08T06:29:52.618Z,31.40
2018-01-08T06:30:55.132Z,29.20
2018-01-08T06:31:58.362Z,29.98
2018-01-08T06:33:01.593Z,26.90
2018-01-08T06:34:04.826Z,27.58
2018-01-08T06:35:07.282Z,26.50
2018-01-08T06:36:10.539Z,34.42
2018-01-08T06:37:13.674Z,30.88
2018-01-08T06:38:16.984Z,27.73
2018-01-08T06:39:19.471Z,27.90
2018-01-08T06:40:21.971Z,27.67
2018-01-08T06:41:24.497Z,27.48
2018-01-08T06:42:27.007Z,23.60
2018-01-08T06:43:29.566Z,23.55
2018-01-08T06:44:32.074Z,26.20
2018-01-08T06:45:36.042Z,27.08
2018-01-08T06:46:38.549Z,28.02
2018-01-08T06:47:41.862Z,30.35
2018-01-08T06:48:44.483Z,31.30
2018-01-08T06:49:47.020Z,25.52
2018-01-08T06:50:49.727Z,25.17
2018-01-08T06:51:52.211Z,28.23
2018-01-08T06:52:55.437Z,23.98
2018-01-08T06:53:58.694Z,26.10
2018-01-08T06:55:02.002Z,26.25
2018-01-08T06:56:04.484Z,26.55
2018-01-08T06:57:07.030Z,28.70
2018-01-08T06:58:09.506Z,27.60
2018-01-08T06:59:13.494Z,24.60
2018-01-08T07:00:15.990Z,27.45
2018-01-08T07:01:19.227Z,28.45
2018-01-08T07:02:22.444Z,26.77
2018-01-08T07:03:24.896Z,25.48
2018-01-08T07:04:28.175Z,27.85
2018-01-08T07:05:30.734Z,26.20
2018-01-08T07:06:33.208Z,30.60
2018-01-08T07:07:36.437Z,28.73
2018-01-08T07:08:40.542Z,31.83
2018-01-08T07:09:43.059Z,26.00
2018-01-08T07:10:46.303Z,25.08
2018-01-08T07:11:48.809Z,24.08
2018-01-08T07:12:51.292Z,22.70
2018-01-08T07:13:53.753Z,26.50
2018-01-08T07:14:56.262Z,27.90
2018-01-08T07:15:59.568Z,31.40
2018-01-08T07:17:02.049Z,32.75
2018-01-08T07:18:04.578Z,30.10
2018-01-08T07:19:07.098Z,26.77
2018-01-08T07:20:09.645Z,25.75
2018-01-08T07:21:12.187Z,31.05
2018-01-08T07:22:14.881Z,28.92
2018-01-08T07:23:17.658Z,26.95
2018-01-08T07:24:20.113Z,31.02
2018-01-08T07:25:23.353Z,28.17
2018-01-08T07:26:26.634Z,30.62
2018-01-08T07:27:29.159Z,29.48
2018-01-08T07:28:32.236Z,29.10
2018-01-08T07:29:34.801Z,28.75
2018-01-08T07:30:38.084Z,26.10
2018-01-08T07:31:40.569Z,26.40
2018-01-08T07:32:43.831Z,28.02
2018-01-08T07:33:46.346Z,26.90
2018-01-08T07:34:48.807Z,31.95
2018-01-08T07:35:51.274Z,28.73
2018-01-08T07:36:54.533Z,22.98
2018-01-08T07:37:57.761Z,29.20
2018-01-08T07:39:00.989Z,28.38
2018-01-08T07:40:03.457Z,32.53
2018-01-08T07:41:05.979Z,32.20
2018-01-08T07:42:08.473Z,25.73
2018-01-08T07:43:12.468Z,33.22
2018-01-08T07:44:14.938Z,31.95
2018-01-08T07:45:17.426Z,27.92
2018-01-08T07:46:19.906Z,30.42
2018-01-08T07:47:22.427Z,31.50
2018-01-08T07:48:25.713Z,27.95
2018-01-08T07:49:28.169Z,33.13
2018-01-08T07:50:31.475Z,26.15
2018-01-08T07:51:34.005Z,28.92
2018-01-08T07:52:36.509Z,29.70
2018-01-08T07:53:39.792Z,30.98
2018-01-08T07:54:42.408Z,26.73
2018-01-08T07:55:45.054Z,25.25
2018-01-08T07:56:47.547Z,24.00
2018-01-08T07:57:50.046Z,27.73
2018-01-08T07:58:53.368Z,27.87
2018-01-08T07:59:55.861Z,24.52
2018-01-08T08:00:58.394Z,29.27
2018-01-08T08:02:00.885Z,30.10
2018-01-08T08:03:04.148Z,30.75
2018-01-08T08:04:06.635Z,26.77
2018-01-08T08:05:09.158Z,22.70
2018-01-08T08:06:11.718Z,32.67
2018-01-08T08:07:14.236Z,29.65
2018-01-08T08:08:16.741Z,29.42
2018-01-08T08:09:19.238Z,27.37
2018-01-08T08:10:21.772Z,29.48
2018-01-08T08:11:24.244Z,28.33
2018-01-08T08:12:26.719Z,28.08
2018-01-08T08:13:29.233Z,26.05
2018-01-08T08:14:31.774Z,25.52
2018-01-08T08:15:34.302Z,25.02
2018-01-08T08:16:36.801Z,29.45
2018-01-08T08:17:39.296Z,26.77
2018-01-08T08:18:41.802Z,28.42
2018-01-08T08:19:44.454Z,26.85
2018-01-08T08:20:46.946Z,21.87
2018-01-08T08:21:49.398Z,32.80
2018-01-08T08:22:51.970Z,27.25
2018-01-08T08:23:54.431Z,23.95
2018-01-08T08:24:56.895Z,21.85
2018-01-08T08:25:59.502Z,26.02
2018-01-08T08:27:02.034Z,25.05
2018-01-08T08:28:04.494Z,25.80
2018-01-08T08:29:06.945Z,22.08
2018-01-08T08:30:09.507Z,22.15
2018-01-08T08:31:12.031Z,23.02
2018-01-08T08:32:14.559Z,22.35
2018-01-08T08:33:18.306Z,19.73
2018-01-08T08:34:20.783Z,23.33
2018-01-08T08:35:23.253Z,25.20
2018-01-08T08:36:26.601Z,23.08
2018-01-08T08:37:29.085Z,22.77
2018-01-08T08:38:31.560Z,22.90
2018-01-08T08:39:34.038Z,17.98
2018-01-08T08:40:36.613Z,19.27
2018-01-08T08:41:39.077Z,18.17
2018-01-08T08:42:41.565Z,22.37
2018-01-08T08:43:44.068Z,21.00
2018-01-08T08:44:47.289Z,21.42
2018-01-08T08:45:49.755Z,17.67
2018-01-08T08:46:52.270Z,21.75
2018-01-08T08:47:54.794Z,23.77
2018-01-08T08:48:58.093Z,22.13
2018-01-08T08:50:00.569Z,17.70
2018-01-08T08:51:03.801Z,18.30
2018-01-08T08:52:07.044Z,19.25
2018-01-08T08:53:10.424Z,17.35
2018-01-08T08:54:12.941Z,16.45
2018-01-08T08:55:15.406Z,17.80
2018-01-08T08:56:17.874Z,23.23
2018-01-08T08:57:20.348Z,19.52
2018-01-08T08:58:22.816Z,20.40
2018-01-08T08:59:26.065Z,19.25
2018-01-08T09:00:30.032Z,18.87
2018-01-08T09:01:32.567Z,20.75
2018-01-08T09:02:35.079Z,19.48
2018-01-08T09:03:37.565Z,16.40
2018-01-08T09:04:40.055Z,18.00
2018-01-08T09:05:42.514Z,19.45
2018-01-08T09:06:46.498Z,16.75
2018-01-08T09:07:49.744Z,20.58
2018-01-08T09:08:52.976Z,16.33
2018-01-08T09:09:56.248Z,13.68
2018-01-08T09:10:58.722Z,15.65
2018-01-08T09:12:01.209Z,15.10
2018-01-08T09:13:03.699Z,15.52
2018-01-08T09:14:06.955Z,18.40
2018-01-08T09:15:09.420Z,17.30
2018-01-08T09:16:11.873Z,15.60
2018-01-08T09:17:14.383Z,15.65
2018-01-08T09:18:17.618Z,13.23
2018-01-08T09:19:20.515Z,11.60
2018-01-08T09:20:22.972Z,15.60
2018-01-08T09:21:25.481Z,18.08
2018-01-08T09:22:28.826Z,12.45
2018-01-08T09:23:31.280Z,17.73
2018-01-08T09:24:33.751Z,15.05
2018-01-08T09:25:36.205Z,15.40
2018-01-08T09:26:38.680Z,13.30
2018-01-08T09:27:41.153Z,21.12
2018-01-08T09:28:43.605Z,18.00
2018-01-08T09:29:46.062Z,17.12
2018-01-08T09:30:48.532Z,18.50
2018-01-08T09:31:50.978Z,15.88
2018-01-08T09:32:54.263Z,15.38
2018-01-08T09:33:57.561Z,18.10
2018-01-08T09:35:00.024Z,15.90
2018-01-08T09:36:02.496Z,17.12
2018-01-08T09:37:04.954Z,15.68
2018-01-08T09:38:07.711Z,18.90
2018-01-08T09:39:11.002Z,15.18
2018-01-08T09:40:13.450Z,18.80
2018-01-08T09:41:15.921Z,14.70
2018-01-08T09:42:18.431Z,16.65
2018-01-08T09:43:21.776Z,18.52
2018-01-08T09:44:24.241Z,13.05
2018-01-08T09:45:26.745Z,14.63
2018-01-08T09:46:29.194Z,13.00
2018-01-08T09:47:31.663Z,15.40
2018-01-08T09:48:34.918Z,14.07
2018-01-08T09:49:37.407Z,14.95
2018-01-08T09:50:39.897Z,15.75
2018-01-08T09:51:42.382Z,18.12
2018-01-08T09:52:45.617Z,14.55
2018-01-08T09:53:48.110Z,19.65
2018-01-08T09:54:50.592Z,14.52
2018-01-08T09:55:53.062Z,13.90
2018-01-08T09:56:55.529Z,17.75
2018-01-08T09:57:57.995Z,14.30
2018-01-08T09:59:00.545Z,15.75
2018-01-08T10:00:03.001Z,15.95
2018-01-08T10:01:06.251Z,12.07
2018-01-08T10:02:08.776Z,15.02
2018-01-08T10:03:23.852Z,14.85
2018-01-08T10:04:39.203Z,11.77
2018-01-08T10:05:53.710Z,16.33
2018-01-08T10:07:08.209Z,12.55
2018-01-08T10:08:22.604Z,11.43
2018-01-08T10:09:37.003Z,15.30
2018-01-08T10:10:51.475Z,13.35
2018-01-08T10:12:06.483Z,10.10
2018-01-08T10:13:21.567Z,11.52
2018-01-08T10:14:35.867Z,11.55
2018-01-08T10:15:50.254Z,11.63
2018-01-08T10:17:04.702Z,13.05
2018-01-08T10:18:18.923Z,11.63
2018-01-08T10:19:33.444Z,11.77
2018-01-08T10:20:35.906Z,10.57
2018-01-08T10:21:39.133Z,11.07
2018-01-08T10:22:41.611Z,12.15
2018-01-08T10:23:44.106Z,10.90
2018-01-08T10:24:47.350Z,8.43
2018-01-08T10:25:50.626Z,11.02
2018-01-08T10:26:53.091Z,7.80
2018-01-08T10:27:55.557Z,9.25
2018-01-08T10:28:58.074Z,12.40
2018-01-08T10:30:00.539Z,9.43
2018-01-08T10:31:03.015Z,11.98
2018-01-08T10:32:06.240Z,9.70
2018-01-08T10:33:08.749Z,9.35
2018-01-08T10:34:11.330Z,10.52
2018-01-08T10:35:13.782Z,8.60
2018-01-08T10:36:16.250Z,10.93
2018-01-08T10:37:19.490Z,11.20
2018-01-08T10:38:22.733Z,9.10
2018-01-08T10:39:25.952Z,8.68
2018-01-08T10:40:28.533Z,9.45
2018-01-08T10:41:36.615Z,9.77
2018-01-08T10:42:44.909Z,11.50
2018-01-08T10:43:53.833Z,11.90
2018-01-08T10:45:02.026Z,11.32
2018-01-08T10:46:11.130Z,10.63
2018-01-08T10:47:20.161Z,9.50
2018-01-08T10:48:28.239Z,11.77
2018-01-08T10:49:36.541Z,12.40
2018-01-08T10:50:44.623Z,8.88
2018-01-08T10:51:46.578Z,12.77
2018-01-08T10:53:01.588Z,9.10
2018-01-08T10:54:04.848Z,7.68
2018-01-08T10:55:07.336Z,9.07
2018-01-08T10:56:09.800Z,11.12
2018-01-08T10:57:12.307Z,9.95
2018-01-08T10:58:14.800Z,8.43
2018-01-08T10:59:17.519Z,8.43
2018-01-08T11:00:20.009Z,9.70
2018-01-08T11:01:28.139Z,9.98
2018-01-08T11:02:37.220Z,9.38
2018-01-08T11:03:45.358Z,11.23
2018-01-08T11:04:48.605Z,12.02
2018-01-08T11:05:51.833Z,7.32
2018-01-08T11:06:54.330Z,6.87
2018-01-08T11:07:56.841Z,16.25
2018-01-08T11:08:59.289Z,10.77
2018-01-08T11:10:01.785Z,12.43
2018-01-08T11:11:04.253Z,11.32
2018-01-08T11:12:06.725Z,12.05
2018-01-08T11:13:09.188Z,9.73
2018-01-08T11:14:11.644Z,10.07
2018-01-08T11:15:14.879Z,5.95
2018-01-08T11:16:17.760Z,8.63
2018-01-08T11:17:20.270Z,9.73
2018-01-08T11:18:22.795Z,7.70
2018-01-08T11:19:25.334Z,7.40
2018-01-08T11:20:27.826Z,8.93
2018-01-08T11:21:31.046Z,8.98
2018-01-08T11:22:33.609Z,8.18
2018-01-08T11:23:36.125Z,7.35
2018-01-08T11:24:39.363Z,9.13
2018-01-08T11:25:42.594Z,9.15
2018-01-08T11:26:45.822Z,10.20
2018-01-08T11:27:49.066Z,12.52
2018-01-08T11:28:51.626Z,8.75
2018-01-08T11:29:54.081Z,8.80
2018-01-08T11:30:56.569Z,8.40
2018-01-08T11:31:59.787Z,6.53
2018-01-08T11:33:02.254Z,10.40
2018-01-08T11:34:04.733Z,7.43
2018-01-08T11:35:07.284Z,9.30
2018-01-08T11:36:10.527Z,8.23
2018-01-08T11:37:13.791Z,9.00
2018-01-08T11:38:16.270Z,11.32
2018-01-08T11:39:18.779Z,8.50
2018-01-08T11:40:21.225Z,7.95
2018-01-08T11:41:23.675Z,8.88
2018-01-08T11:42:26.132Z,7.47
2018-01-08T11:43:28.619Z,7.50
2018-01-08T11:44:31.858Z,8.02
2018-01-08T11:45:35.084Z,10.63
2018-01-08T11:46:37.583Z,8.85
2018-01-08T11:47:40.090Z,8.38
2018-01-08T11:48:42.557Z,7.25
2018-01-08T11:49:45.046Z,12.27
2018-01-08T11:50:47.522Z,8.60
2018-01-08T11:51:50.751Z,10.30
2018-01-08T11:52:53.219Z,8.82
2018-01-08T11:53:55.677Z,7.97
2018-01-08T11:54:59.641Z,9.77
2018-01-08T11:56:02.114Z,9.77
2018-01-08T11:57:04.579Z,8.55
2018-01-08T11:58:07.038Z,9.15
2018-01-08T11:59:10.279Z,7.90
2018-01-08T12:00:13.507Z,7.40
2018-01-08T12:01:16.023Z,10.18
2018-01-08T12:02:18.490Z,8.50
2018-01-08T12:03:20.941Z,8.35
2018-01-08T12:05:32.283Z,7.87
2018-01-08T12:06:34.779Z,8.38
2018-01-08T12:07:37.315Z,8.77
2018-01-08T12:08:39.782Z,8.20
2018-01-08T12:09:42.985Z,10.77
2018-01-08T12:10:45.472Z,8.60
2018-01-08T12:11:47.968Z,7.18
2018-01-08T12:12:51.235Z,8.93
2018-01-08T12:13:53.673Z,9.40
2018-01-08T12:14:56.135Z,7.30
2018-01-08T12:16:03.523Z,10.90
2018-01-08T12:17:06.005Z,10.45
2018-01-08T12:18:08.560Z,8.02
2018-01-08T12:19:11.006Z,7.93
2018-01-08T12:20:13.491Z,8.60
2018-01-08T12:21:16.836Z,9.77
2018-01-08T12:22:20.064Z,9.27
2018-01-08T12:23:23.300Z,10.10
2018-01-08T12:24:26.516Z,9.38
2018-01-08T12:25:29.000Z,8.52
2018-01-08T12:26:32.261Z,9.68
2018-01-08T12:27:35.479Z,10.85
2018-01-08T12:28:38.733Z,11.45
2018-01-08T12:29:41.202Z,7.97
2018-01-08T12:30:43.654Z,8.90
2018-01-08T12:31:46.124Z,8.43
2018-01-08T12:32:48.628Z,8.25
2018-01-08T12:33:51.153Z,8.50
2018-01-08T12:34:53.625Z,7.95
2018-01-08T12:35:56.107Z,9.70
2018-01-08T12:36:58.629Z,9.65
2018-01-08T12:38:01.155Z,10.35
2018-01-08T12:39:04.378Z,7.70
2018-01-08T12:40:07.615Z,8.85
2018-01-08T12:41:10.070Z,11.05
2018-01-08T12:42:12.513Z,7.43
2018-01-08T12:43:15.010Z,9.60
2018-01-08T12:44:18.217Z,8.80
2018-01-08T12:45:20.678Z,8.80
2018-01-08T12:46:23.150Z,9.55
2018-01-08T12:47:25.652Z,7.22
2018-01-08T12:48:28.105Z,9.90
2018-01-08T12:49:30.561Z,7.78
2018-01-08T12:50:33.781Z,9.63
2018-01-08T12:51:37.068Z,9.90
2018-01-08T12:52:39.600Z,6.40
2018-01-08T12:53:42.090Z,9.52
2018-01-08T12:54:44.640Z,10.40
2018-01-08T12:55:47.189Z,6.90
2018-01-08T12:56:49.707Z,11.30
2018-01-08T12:57:52.174Z,8.05
2018-01-08T12:58:54.695Z,7.45
2018-01-08T12:59:57.169Z,6.00
2018-01-08T13:00:59.634Z,9.90
2018-01-08T13:02:02.109Z,7.60
2018-01-08T13:03:05.330Z,8.95
2018-01-08T13:04:07.826Z,6.78
2018-01-08T13:05:10.311Z,7.57
2018-01-08T13:06:12.753Z,8.70
2018-01-08T13:07:15.236Z,7.87
2018-01-08T13:08:17.681Z,6.93
2018-01-08T13:09:20.164Z,8.77
2018-01-08T13:10:22.609Z,8.15
2018-01-08T13:11:25.871Z,8.45
2018-01-08T13:12:28.327Z,7.90
2018-01-08T13:13:30.784Z,7.18
2018-01-08T13:14:34.023Z,6.72
2018-01-08T13:15:37.973Z,7.95
2018-01-08T13:16:40.451Z,7.78
2018-01-08T13:17:42.978Z,8.50
2018-01-08T13:18:45.433Z,9.75
2018-01-08T13:19:47.932Z,8.52
2018-01-08T13:20:50.381Z,7.70
2018-01-08T13:21:52.842Z,6.93
2018-01-08T13:22:55.327Z,16.87
2018-01-08T13:23:57.835Z,8.65
2018-01-08T13:25:00.309Z,7.87
2018-01-08T13:26:02.878Z,9.88
2018-01-08T13:27:05.348Z,7.05
2018-01-08T13:28:07.815Z,8.02
2018-01-08T13:29:11.085Z,8.55
2018-01-08T13:30:13.563Z,8.27
2018-01-08T13:31:16.024Z,8.77
2018-01-08T13:32:18.529Z,6.72
2018-01-08T13:33:21.769Z,14.85
2018-01-08T13:34:25.016Z,7.35
2018-01-08T13:35:28.303Z,7.90
2018-01-08T13:36:30.802Z,10.93
2018-01-08T13:37:33.370Z,9.15
2018-01-08T13:38:35.858Z,8.10
2018-01-08T13:39:38.343Z,7.93